Time;durP1;ratioP1;P1;durP2;ratioP2;P2;SDS_P1;SDS_P2;PMS_P1;PMS_P2;Temp;Humidity;BMP_temperature;BMP_pressure;BME280_temperature;BME280_humidity;BME280_pressure;Samples;Min_cycle;Max_cycle;Signal;HPM_P1;HPM_P2
2023/02/11 00:01:31;;;;;;;54.50;20.73;;;;;;;;;;5012519;28;20045;-75
2023/02/11 00:04:05;;;;;;;50.57;21.23;;;;;;;;;;5014629;28;20563;-78
2023/02/11 00:06:33;;;;;;;54.33;20.93;;;;;;;;;;5014217;28;20029;-76
2023/02/11 00:08:59;;;;;;;43.53;19.73;;;;;;;;;;5012794;28;20030;-76
2023/02/11 00:11:29;;;;;;;47.47;21.77;;;;;;;;;;5012667;28;20500;-76
2023/02/11 00:13:56;;;;;;;47.63;20.97;;;;;;;;;;5013953;28;20496;-76
2023/02/11 00:16:22;;;;;;;54.30;20.77;;;;;;;;;;5012636;28;20029;-76
2023/02/11 00:18:49;;;;;;;52.03;22.30;;;;;;;;;;5012484;28;20030;-77
2023/02/11 00:21:17;;;;;;;78.77;24.23;;;;;;;;;;5012520;28;20556;-76
2023/02/11 00:23:44;;;;;;;53.73;22.17;;;;;;;;;;5012608;28;20030;-77
2023/02/11 00:26:24;;;;;;;50.67;20.37;;;;;;;;;;5013913;28;20401;-76
2023/02/11 00:28:51;;;;;;;51.87;20.50;;;;;;;;;;5013574;28;20474;-76
2023/02/11 00:31:18;;;;;;;54.70;21.87;;;;;;;;;;5014009;28;20129;-75
2023/02/11 00:33:43;;;;;;;51.83;21.10;;;;;;;;;;5012375;28;20022;-75
2023/02/11 00:36:17;;;;;;;57.50;21.60;;;;;;;;;;5013545;28;20025;-76
2023/02/11 00:38:43;;;;;;;54.93;21.53;;;;;;;;;;5019274;28;20076;-75
2023/02/11 00:41:09;;;;;;;53.80;20.57;;;;;;;;;;5033023;28;20033;-75
2023/02/11 00:43:35;;;;;;;56.53;23.50;;;;;;;;;;5031641;28;20037;-76
2023/02/11 00:46:01;;;;;;;53.23;21.70;;;;;;;;;;5032579;28;20484;-75
2023/02/11 00:48:27;;;;;;;57.30;24.03;;;;;;;;;;5032983;28;20041;-75
2023/02/11 00:50:53;;;;;;;62.73;23.20;;;;;;;;;;5032876;28;20033;-75
2023/02/11 00:53:18;;;;;;;52.47;21.13;;;;;;;;;;5030908;28;20080;-76
2023/02/11 00:55:44;;;;;;;57.97;23.40;;;;;;;;;;5032234;28;20072;-75
2023/02/11 00:58:09;;;;;;;52.13;21.43;;;;;;;;;;5032882;28;20029;-75
2023/02/11 01:00:35;;;;;;;51.53;23.03;;;;;;;;;;5031430;28;20407;-76
2023/02/11 01:03:00;;;;;;;46.33;21.43;;;;;;;;;;5031336;28;20034;-75
2023/02/11 01:05:26;;;;;;;56.10;23.67;;;;;;;;;;5015100;28;20500;-76
2023/02/11 01:07:51;;;;;;;69.07;24.37;;;;;;;;;;5032664;28;20055;-75
2023/02/11 01:10:17;;;;;;;60.23;24.73;;;;;;;;;;5032698;28;20029;-76
2023/02/11 01:12:43;;;;;;;63.33;25.40;;;;;;;;;;5030991;28;20478;-76
2023/02/11 01:15:11;;;;;;;65.90;25.73;;;;;;;;;;5031428;28;20037;-75
2023/02/11 01:17:36;;;;;;;62.07;25.00;;;;;;;;;;5032862;28;20045;-75
2023/02/11 01:20:10;;;;;;;56.37;23.77;;;;;;;;;;5031006;28;20029;-76
2023/02/11 01:22:38;;;;;;;67.50;26.50;;;;;;;;;;5031008;28;20061;-76
2023/02/11 01:25:05;;;;;;;58.50;24.50;;;;;;;;;;5032142;28;20029;-76
2023/02/11 01:27:31;;;;;;;55.30;23.23;;;;;;;;;;5030731;28;20045;-76
2023/02/11 01:29:56;;;;;;;55.23;23.93;;;;;;;;;;5030332;28;20418;-75
2023/02/11 01:32:22;;;;;;;59.00;24.27;;;;;;;;;;5030345;28;20033;-76
2023/02/11 01:34:47;;;;;;;57.77;23.83;;;;;;;;;;5030153;28;20075;-77
2023/02/11 01:37:13;;;;;;;64.07;25.70;;;;;;;;;;5032025;28;20037;-77
2023/02/11 01:39:39;;;;;;;59.30;26.13;;;;;;;;;;5014860;28;20049;-78
2023/02/11 01:42:04;;;;;;;67.97;25.80;;;;;;;;;;5011787;28;20085;-76
2023/02/11 01:44:37;;;;;;;61.37;24.57;;;;;;;;;;5011559;28;20052;-75
2023/02/11 01:47:05;;;;;;;58.50;26.00;;;;;;;;;;5011884;28;20498;-74
2023/02/11 01:49:37;;;;;;;63.73;26.40;;;;;;;;;;5010171;28;20025;-75
2023/02/11 01:52:06;;;;;;;;;;;;;;;;;;5012023;28;20066;-75
2023/02/11 01:57:25;;;;;;;58.73;23.80;;;;;;;;;;5011944;28;20052;-78
2023/02/11 02:00:09;;;;;;;;;;;;;;;;;;5011970;28;20018;-76
2023/02/11 02:02:43;;;;;;;58.03;23.40;;;;;;;;;;5010029;28;19916;-75
2023/02/11 02:05:33;;;;;;;58.17;23.90;;;;;;;;;;5010098;28;20545;-76
2023/02/11 02:08:09;;;;;;;56.97;22.53;;;;;;;;;;5009450;28;20034;-76
2023/02/11 02:10:39;;;;;;;56.37;22.23;;;;;;;;;;5009976;28;20026;-77
2023/02/11 02:13:05;;;;;;;51.40;24.77;;;;;;;;;;5011077;28;20339;-75
2023/02/11 02:15:36;;;;;;;51.00;23.50;;;;;;;;;;5010237;28;20026;-77
2023/02/11 02:18:36;;;;;;;53.23;23.23;;;;;;;;;;5018001;28;20024;-76
2023/02/11 02:21:39;;;;;;;56.83;24.17;;;;;;;;;;5030697;28;20087;-76
2023/02/11 02:24:32;;;;;;;57.47;23.53;;;;;;;;;;5030679;28;20035;-76
2023/02/11 02:27:19;;;;;;;58.60;23.37;;;;;;;;;;5029699;28;20021;-76
2023/02/11 02:30:01;;;;;;;54.83;24.23;;;;;;;;;;5030522;28;20017;-76
2023/02/11 02:32:48;;;;;;;47.88;21.80;;;;;;;;;;5030413;28;20026;-76
2023/02/11 02:35:28;;;;;;;51.53;22.10;;;;;;;;;;5031566;28;20037;-76
2023/02/11 02:38:32;;;;;;;56.03;24.87;;;;;;;;;;5029554;28;20044;-76
2023/02/11 02:41:09;;;;;;;51.30;23.40;;;;;;;;;;5012256;28;20053;-76
2023/02/11 02:43:42;;;;;;;47.93;23.03;;;;;;;;;;5030939;28;20381;-76
2023/02/11 02:46:17;;;;;;;57.27;23.23;;;;;;;;;;5029389;28;20042;-76
2023/02/11 02:48:43;;;;;;;56.00;23.77;;;;;;;;;;5031297;28;20021;-76
2023/02/11 02:51:15;;;;;;;53.43;22.27;;;;;;;;;;5029612;28;20440;-76
2023/02/11 02:53:58;;;;;;;55.97;24.23;;;;;;;;;;5031040;28;20045;-76
2023/02/11 02:56:42;;;;;;;60.57;24.70;;;;;;;;;;5029354;28;20029;-76
2023/02/11 02:59:36;;;;;;;59.20;23.30;;;;;;;;;;5028973;28;20033;-75
2023/02/11 03:02:27;;;;;;;50.47;23.73;;;;;;;;;;5001565;28;20121;-77
2023/02/11 03:05:15;;;;;;;56.13;22.03;;;;;;;;;;5033167;28;20393;-76
2023/02/11 03:07:47;;;;;;;53.80;22.10;;;;;;;;;;5033192;28;20029;-75
2023/02/11 03:10:19;;;;;;;56.10;21.23;;;;;;;;;;5034702;28;20024;-76
2023/02/11 03:12:46;;;;;;;45.45;21.20;;;;;;;;;;5034745;28;20109;-76
2023/02/11 03:15:13;;;;;;;50.03;21.57;;;;;;;;;;5032893;28;20033;-76
2023/02/11 03:17:44;;;;;;;40.97;19.87;;;;;;;;;;5034780;28;20446;-76
2023/02/11 03:20:13;;;;;;;46.60;21.17;;;;;;;;;;5032910;28;20025;-75
2023/02/11 03:22:48;;;;;;;53.50;23.20;;;;;;;;;;5032716;28;20072;-75
2023/02/11 03:25:14;;;;;;;48.87;21.20;;;;;;;;;;5033351;28;20036;-77
2023/02/11 03:27:51;;;;;;;47.30;21.07;;;;;;;;;;5033048;28;20040;-76
2023/02/11 03:30:25;;;;;;;41.47;18.83;;;;;;;;;;5033864;28;20033;-76
2023/02/11 03:32:56;;;;;;;44.97;20.17;;;;;;;;;;5032645;28;20384;-77
2023/02/11 03:36:01;;;;;;;50.70;22.90;;;;;;;;;;5032707;28;20098;-76
2023/02/11 03:38:31;;;;;;;44.27;20.17;;;;;;;;;;5033046;28;20014;-76
2023/02/11 03:40:59;;;;;;;46.73;20.50;;;;;;;;;;5034341;28;20030;-77
2023/02/11 03:43:43;;;;;;;54.20;21.87;;;;;;;;;;5032582;28;20025;-75
2023/02/11 03:46:10;;;;;;;43.03;20.47;;;;;;;;;;5016095;28;20033;-75
2023/02/11 03:48:40;;;;;;;43.90;20.57;;;;;;;;;;5032671;28;20026;-74
2023/02/11 03:51:09;;;;;;;51.30;20.03;;;;;;;;;;5032749;28;20028;-75
2023/02/11 03:53:37;;;;;;;42.73;19.80;;;;;;;;;;5032491;28;20377;-76
2023/02/11 03:56:07;;;;;;;38.17;17.20;;;;;;;;;;5032895;28;20481;-77
2023/02/11 03:58:33;;;;;;;41.57;18.87;;;;;;;;;;5033999;28;20021;-76
2023/02/11 04:01:01;;;;;;;49.27;19.10;;;;;;;;;;5032329;28;20520;-76
2023/02/11 04:03:26;;;;;;;43.70;20.70;;;;;;;;;;5032775;28;20120;-75
2023/02/11 04:05:52;;;;;;;43.83;19.03;;;;;;;;;;5031947;28;20126;-77
2023/02/11 04:08:18;;;;;;;43.60;19.87;;;;;;;;;;5032518;28;20485;-76
2023/02/11 04:10:44;;;;;;;43.47;17.67;;;;;;;;;;5032812;28;20057;-75
2023/02/11 04:13:10;;;;;;;49.50;20.67;;;;;;;;;;5033096;28;20089;-74
2023/02/11 04:15:35;;;;;;;43.93;20.07;;;;;;;;;;5033882;28;20434;-76
2023/02/11 04:18:02;;;;;;;40.23;18.57;;;;;;;;;;5033552;28;20104;-78
2023/02/11 04:20:28;;;;;;;40.00;18.90;;;;;;;;;;5034003;28;20017;-76
2023/02/11 04:22:53;;;;;;;40.00;17.63;;;;;;;;;;5033220;28;20024;-76
2023/02/11 04:25:19;;;;;;;49.60;19.83;;;;;;;;;;5034146;28;20033;-75
2023/02/11 04:27:44;;;;;;;44.07;17.83;;;;;;;;;;5031549;28;20030;-77
2023/02/11 04:30:11;;;;;;;44.93;19.03;;;;;;;;;;5031622;28;20021;-76
2023/02/11 04:32:36;;;;;;;45.77;17.67;;;;;;;;;;5033116;28;20031;-76
2023/02/11 04:35:02;;;;;;;40.33;17.50;;;;;;;;;;5033097;28;20029;-76
2023/02/11 04:37:27;;;;;;;34.80;17.87;;;;;;;;;;5032077;28;20120;-77
2023/02/11 04:39:53;;;;;;;42.50;18.23;;;;;;;;;;5032307;28;20049;-78
2023/02/11 04:42:18;;;;;;;39.40;18.03;;;;;;;;;;5031599;28;20559;-77
2023/02/11 04:44:44;;;;;;;41.87;18.10;;;;;;;;;;5033232;28;20025;-77
2023/02/11 04:47:12;;;;;;;34.60;16.43;;;;;;;;;;5033338;28;20477;-75
2023/02/11 04:49:38;;;;;;;42.50;18.10;;;;;;;;;;5033167;28;20041;-76
2023/02/11 04:52:03;;;;;;;33.13;17.00;;;;;;;;;;5031439;28;20033;-78
2023/02/11 04:54:30;;;;;;;40.73;16.43;;;;;;;;;;5032941;28;20022;-77
2023/02/11 04:56:56;;;;;;;41.67;17.73;;;;;;;;;;5032751;28;20025;-76
2023/02/11 04:59:22;;;;;;;41.17;18.13;;;;;;;;;;5031471;28;20340;-76
2023/02/11 05:01:48;;;;;;;37.50;18.23;;;;;;;;;;5031254;28;20112;-76
2023/02/11 05:04:13;;;;;;;36.23;17.70;;;;;;;;;;5031353;28;20553;-77
2023/02/11 05:06:39;;;;;;;41.60;18.60;;;;;;;;;;5032362;28;20105;-76
2023/02/11 05:09:05;;;;;;;38.90;18.30;;;;;;;;;;5030582;28;20120;-74
2023/02/11 05:11:30;;;;;;;33.40;17.00;;;;;;;;;;5032284;28;20646;-77
2023/02/11 05:13:56;;;;;;;35.63;17.20;;;;;;;;;;5031240;28;20021;-75
2023/02/11 05:16:21;;;;;;;41.70;18.63;;;;;;;;;;5032185;28;20079;-76
2023/02/11 05:18:48;;;;;;;37.50;16.50;;;;;;;;;;5032106;28;20029;-76
2023/02/11 05:21:17;;;;;;;36.50;16.40;;;;;;;;;;5031947;28;20137;-77
2023/02/11 05:23:43;;;;;;;35.50;16.57;;;;;;;;;;5031074;28;20033;-78
2023/02/11 05:26:09;;;;;;;41.60;16.93;;;;;;;;;;5031410;28;20029;-75
2023/02/11 05:28:35;;;;;;;33.37;16.10;;;;;;;;;;5031301;28;20018;-76
2023/02/11 05:31:01;;;;;;;32.43;15.80;;;;;;;;;;5030683;28;20204;-77
2023/02/11 05:33:27;;;;;;;37.77;17.43;;;;;;;;;;5030361;28;20612;-76
2023/02/11 05:36:01;;;;;;;31.33;15.93;;;;;;;;;;5030328;28;20370;-76
2023/02/11 05:38:27;;;;;;;41.77;17.53;;;;;;;;;;5027273;28;20481;-76
2023/02/11 05:40:52;;;;;;;35.30;15.83;;;;;;;;;;5011159;28;20030;-75
2023/02/11 05:43:18;;;;;;;38.40;17.40;;;;;;;;;;5010624;28;20030;-76
2023/02/11 05:45:43;;;;;;;33.70;15.00;;;;;;;;;;5012276;28;20032;-76
2023/02/11 05:48:09;;;;;;;33.33;15.80;;;;;;;;;;5010269;28;20057;-76
2023/02/11 05:50:34;;;;;;;38.27;15.77;;;;;;;;;;5010554;28;20032;-76
2023/02/11 05:53:00;;;;;;;42.40;16.87;;;;;;;;;;5011643;28;20382;-76
2023/02/11 05:55:26;;;;;;;37.43;16.03;;;;;;;;;;5010688;28;20030;-77
2023/02/11 05:57:51;;;;;;;34.53;16.03;;;;;;;;;;5010629;28;20030;-76
2023/02/11 06:00:17;;;;;;;33.50;16.20;;;;;;;;;;5010419;28;20036;-76
2023/02/11 06:02:43;;;;;;;28.67;14.60;;;;;;;;;;5010376;28;20085;-76
2023/02/11 06:05:09;;;;;;;38.53;15.10;;;;;;;;;;5010582;28;20482;-75
2023/02/11 06:07:34;;;;;;;31.53;14.80;;;;;;;;;;5010566;28;20042;-76
2023/02/11 06:10:00;;;;;;;34.60;15.33;;;;;;;;;;5011458;28;20104;-77
2023/02/11 06:12:25;;;;;;;33.60;16.00;;;;;;;;;;5011730;28;20030;-76
2023/02/11 06:14:51;;;;;;;36.00;16.27;;;;;;;;;;5011747;28;20026;-77
2023/02/11 06:17:17;;;;;;;41.03;16.00;;;;;;;;;;5009706;28;20111;-76
2023/02/11 06:19:43;;;;;;;34.07;16.97;;;;;;;;;;5010122;28;20117;-76
2023/02/11 06:22:08;;;;;;;31.07;14.10;;;;;;;;;;5011938;28;20044;-75
2023/02/11 06:24:34;;;;;;;33.13;15.43;;;;;;;;;;5010082;28;20037;-76
2023/02/11 06:26:59;;;;;;;42.10;14.73;;;;;;;;;;5011688;28;20091;-76
2023/02/11 06:29:25;;;;;;;36.63;15.43;;;;;;;;;;5010460;28;20125;-77
2023/02/11 06:31:50;;;;;;;31.83;14.73;;;;;;;;;;5010445;28;20078;-76
2023/02/11 06:34:15;;;;;;;37.33;16.70;;;;;;;;;;5011018;28;20179;-76
2023/02/11 06:36:42;;;;;;;34.30;15.60;;;;;;;;;;5010171;28;20117;-77
2023/02/11 06:39:09;;;;;;;33.63;14.47;;;;;;;;;;5021553;28;20541;-75
2023/02/11 06:41:34;;;;;;;32.00;15.30;;;;;;;;;;5031152;28;20104;-77
2023/02/11 06:44:00;;;;;;;35.57;15.37;;;;;;;;;;5029647;28;20045;-77
2023/02/11 06:46:25;;;;;;;43.63;16.30;;;;;;;;;;5031408;28;20041;-76
2023/02/11 06:48:51;;;;;;;37.60;15.00;;;;;;;;;;5031740;28;20036;-76
2023/02/11 06:51:16;;;;;;;38.50;16.63;;;;;;;;;;5031401;28;20237;-75
2023/02/11 06:53:46;;;;;;;38.20;17.23;;;;;;;;;;5028735;28;20021;-77
2023/02/11 06:56:17;;;;;;;33.97;16.03;;;;;;;;;;5030417;28;20033;-76
2023/02/11 06:58:43;;;;;;;34.03;15.13;;;;;;;;;;5031056;28;20462;-76
2023/02/11 07:01:12;;;;;;;32.77;14.67;;;;;;;;;;5030614;28;20087;-77
2023/02/11 07:03:39;;;;;;;36.00;13.83;;;;;;;;;;5013343;28;20033;-76
2023/02/11 07:06:07;;;;;;;37.20;15.37;;;;;;;;;;5029428;28;20121;-76
2023/02/11 07:08:37;;;;;;;27.17;13.47;;;;;;;;;;5031013;28;20037;-76
2023/02/11 07:11:23;;;;;;;30.63;12.87;;;;;;;;;;5030790;28;20044;-74
2023/02/11 07:13:48;;;;;;;35.90;14.97;;;;;;;;;;5029430;28;20017;-74
2023/02/11 07:16:16;;;;;;;33.80;15.13;;;;;;;;;;5029445;28;20103;-75
2023/02/11 07:18:41;;;;;;;34.57;15.43;;;;;;;;;;5029492;28;20056;-76
2023/02/11 07:21:09;;;;;;;37.57;16.23;;;;;;;;;;5029273;28;20542;-76
2023/02/11 07:23:35;;;;;;;33.90;15.03;;;;;;;;;;5029579;28;20060;-76
2023/02/11 07:26:06;;;;;;;34.60;15.77;;;;;;;;;;5029667;28;20481;-76
2023/02/11 07:28:33;;;;;;;24.73;13.30;;;;;;;;;;5030105;28;20025;-77
2023/02/11 07:31:04;;;;;;;31.03;15.47;;;;;;;;;;5030786;28;20021;-77
2023/02/11 07:33:29;;;;;;;32.50;14.70;;;;;;;;;;5029253;28;20470;-77
2023/02/11 07:35:59;;;;;;;34.93;14.23;;;;;;;;;;5030493;28;20029;-76
2023/02/11 07:38:25;;;;;;;36.27;16.23;;;;;;;;;;5025254;28;20355;-76
2023/02/11 07:40:50;;;;;;;32.43;15.37;;;;;;;;;;5011136;28;20040;-79
2023/02/11 07:43:16;;;;;;;34.63;15.07;;;;;;;;;;5010635;28;20030;-76
2023/02/11 07:45:41;;;;;;;33.10;14.67;;;;;;;;;;5009113;28;20482;-76
2023/02/11 07:48:07;;;;;;;36.20;15.43;;;;;;;;;;5011091;28;20371;-76
2023/02/11 07:50:32;;;;;;;35.47;15.77;;;;;;;;;;5013136;28;20076;-76
2023/02/11 07:52:58;;;;;;;30.30;15.53;;;;;;;;;;5012520;28;20175;-78
2023/02/11 07:55:24;;;;;;;29.83;13.63;;;;;;;;;;5012645;28;20061;-77
2023/02/11 07:57:50;;;;;;;32.30;14.90;;;;;;;;;;5012889;28;20029;-75
2023/02/11 08:00:16;;;;;;;36.33;15.40;;;;;;;;;;5012594;28;20504;-74
2023/02/11 08:02:41;;;;;;;31.53;15.30;;;;;;;;;;5012660;28;20057;-76
2023/02/11 08:05:07;;;;;;;29.60;13.40;;;;;;;;;;5012548;28;20120;-76
2023/02/11 08:07:33;;;;;;;32.93;14.80;;;;;;;;;;5013461;28;20037;-76
2023/02/11 08:09:58;;;;;;;32.13;14.77;;;;;;;;;;5012997;28;20446;-75
2023/02/11 08:12:25;;;;;;;32.97;15.07;;;;;;;;;;5012063;28;20156;-78
2023/02/11 08:14:50;;;;;;;32.30;14.53;;;;;;;;;;5012553;28;20497;-77
2023/02/11 08:17:16;;;;;;;34.63;15.57;;;;;;;;;;5012237;28;20022;-77
2023/02/11 08:19:41;;;;;;;36.27;15.53;;;;;;;;;;5012561;28;20249;-77
2023/02/11 08:22:07;;;;;;;32.93;14.93;;;;;;;;;;5012970;28;20458;-77
2023/02/11 08:24:33;;;;;;;34.47;15.00;;;;;;;;;;5012672;28;20316;-78
2023/02/11 08:26:58;;;;;;;35.57;13.97;;;;;;;;;;5012549;28;20524;-77
2023/02/11 08:29:25;;;;;;;34.87;16.40;;;;;;;;;;5014185;28;20077;-74
2023/02/11 08:31:50;;;;;;;32.50;15.97;;;;;;;;;;4996382;28;20040;-77
2023/02/11 08:34:19;;;;;;;33.43;15.07;;;;;;;;;;5013611;28;20021;-78
2023/02/11 08:36:46;;;;;;;37.97;14.50;;;;;;;;;;5013802;28;20105;-77
2023/02/11 08:39:14;;;;;;;31.90;14.93;;;;;;;;;;5024562;28;20188;-76
2023/02/11 08:41:40;;;;;;;33.57;15.10;;;;;;;;;;5034035;28;20029;-77
2023/02/11 08:44:05;;;;;;;31.50;14.87;;;;;;;;;;5031777;28;20041;-78
2023/02/11 08:46:31;;;;;;;31.07;14.13;;;;;;;;;;5032055;28;20026;-76
2023/02/11 08:48:56;;;;;;;33.23;14.33;;;;;;;;;;5031806;28;20036;-76
2023/02/11 08:51:26;;;;;;;29.77;14.57;;;;;;;;;;5031594;28;20207;-76
2023/02/11 08:53:53;;;;;;;29.80;13.77;;;;;;;;;;5031952;28;20017;-77
2023/02/11 08:56:19;;;;;;;30.23;13.33;;;;;;;;;;5031654;28;20021;-77
2023/02/11 08:58:46;;;;;;;34.43;15.17;;;;;;;;;;5032819;28;20044;-76
2023/02/11 09:01:13;;;;;;;30.07;14.70;;;;;;;;;;5032299;28;20083;-76
2023/02/11 09:03:39;;;;;;;32.53;14.33;;;;;;;;;;5031591;28;20033;-75
2023/02/11 09:06:07;;;;;;;31.70;14.40;;;;;;;;;;5032800;28;20037;-76
2023/02/11 09:08:44;;;;;;;34.93;14.47;;;;;;;;;;5031290;28;20029;-77
2023/02/11 09:11:10;;;;;;;36.47;14.33;;;;;;;;;;5031262;28;20477;-77
2023/02/11 09:13:36;;;;;;;32.60;14.83;;;;;;;;;;5032576;28;20053;-76
2023/02/11 09:16:04;;;;;;;33.13;14.13;;;;;;;;;;5032965;28;20397;-76
2023/02/11 09:18:31;;;;;;;30.90;13.43;;;;;;;;;;5032836;28;20030;-77
2023/02/11 09:21:04;;;;;;;40.47;15.80;;;;;;;;;;5032865;28;20033;-77
2023/02/11 09:23:33;;;;;;;30.37;14.50;;;;;;;;;;5031100;28;20033;-76
2023/02/11 09:26:05;;;;;;;30.97;13.90;;;;;;;;;;5032004;28;20374;-75
2023/02/11 09:28:31;;;;;;;31.30;14.87;;;;;;;;;;5030943;28;20037;-77
2023/02/11 09:30:56;;;;;;;32.60;14.93;;;;;;;;;;5031718;28;20035;-77
2023/02/11 09:33:22;;;;;;;31.23;14.77;;;;;;;;;;5030483;28;20029;-77
2023/02/11 09:35:47;;;;;;;31.67;14.13;;;;;;;;;;5031072;28;20505;-77
2023/02/11 09:38:13;;;;;;;31.67;13.67;;;;;;;;;;5027320;28;20129;-76
2023/02/11 09:40:46;;;;;;;35.43;15.87;;;;;;;;;;5012449;28;20381;-78
2023/02/11 09:43:21;;;;;;;37.70;15.50;;;;;;;;;;5012476;28;20036;-77
2023/02/11 09:45:47;;;;;;;29.30;13.83;;;;;;;;;;5011032;28;20030;-78
2023/02/11 09:48:16;;;;;;;31.93;14.63;;;;;;;;;;5012132;28;20515;-78
2023/02/11 09:50:46;;;;;;;33.50;15.87;;;;;;;;;;5012582;28;20080;-77
2023/02/11 09:53:25;;;;;;;34.77;15.17;;;;;;;;;;4995020;28;20018;-75
2023/02/11 09:55:54;;;;;;;28.63;14.10;;;;;;;;;;5010962;28;20022;-77
2023/02/11 09:58:33;;;;;;;33.43;14.53;;;;;;;;;;5010630;28;20037;-77
2023/02/11 10:01:23;;;;;;;27.77;13.83;;;;;;;;;;5011597;28;20057;-76
2023/02/11 10:04:10;;;;;;;37.30;15.40;;;;;;;;;;5012018;28;20029;-76
2023/02/11 10:06:43;;;;;;;27.10;13.70;;;;;;;;;;5010934;28;20030;-76
2023/02/11 10:09:24;;;;;;;27.00;14.03;;;;;;;;;;5010678;28;20129;-78
2023/02/11 10:12:24;;;;;;;32.97;15.53;;;;;;;;;;5009672;28;20171;-77
2023/02/11 10:15:11;;;;;;;33.07;15.40;;;;;;;;;;5012981;28;20573;-77
2023/02/11 10:17:47;;;;;;;32.00;15.33;;;;;;;;;;5010592;28;20552;-76
2023/02/11 10:20:15;;;;;;;33.53;14.63;;;;;;;;;;5011779;28;20120;-76
2023/02/11 10:23:00;;;;;;;34.30;15.10;;;;;;;;;;5010575;28;20034;-77
2023/02/11 10:25:47;;;;;;;31.20;14.83;;;;;;;;;;4994866;28;20042;-78
2023/02/11 10:28:19;;;;;;;29.17;13.70;;;;;;;;;;4994405;28;20030;-77
2023/02/11 10:31:07;;;;;;;31.77;15.13;;;;;;;;;;5010640;28;20040;-77
2023/02/11 10:33:54;;;;;;;31.50;15.00;;;;;;;;;;5011922;28;20526;-77
2023/02/11 10:36:24;;;;;;;31.73;14.50;;;;;;;;;;5010701;28;20030;-77
2023/02/11 10:38:49;;;;;;;32.43;14.37;;;;;;;;;;5019755;28;20513;-76
2023/02/11 10:41:20;;;;;;;32.67;15.00;;;;;;;;;;5030648;28;20032;-78
2023/02/11 10:43:48;;;;;;;30.00;13.77;;;;;;;;;;5031625;28;20478;-77
2023/02/11 10:46:18;;;;;;;28.60;13.97;;;;;;;;;;5032126;28;20112;-78
2023/02/11 10:48:51;;;;;;;25.17;12.70;;;;;;;;;;5031526;28;20447;-76
2023/02/11 10:51:28;;;;;;;30.10;13.87;;;;;;;;;;5031342;28;20045;-76
2023/02/11 10:54:02;;;;;;;32.20;14.97;;;;;;;;;;5046600;28;20022;-74
2023/02/11 10:56:31;;;;;;;30.03;14.63;;;;;;;;;;5029819;28;20051;-78
2023/02/11 10:59:25;;;;;;;33.90;13.07;;;;;;;;;;5030175;28;20029;-75
2023/02/11 11:01:59;;;;;;;28.60;14.27;;;;;;;;;;5027673;28;20064;-76
2023/02/11 11:04:37;;;;;;;30.60;14.53;;;;;;;;;;5030810;28;20023;-75
2023/02/11 11:07:30;;;;;;;34.60;14.90;;;;;;;;;;5031378;28;20381;-77
2023/02/11 11:10:21;;;;;;;33.10;14.00;;;;;;;;;;5029590;28;20430;-77
2023/02/11 11:12:48;;;;;;;31.55;13.45;;;;;;;;;;5031384;28;20512;-76
2023/02/11 11:15:20;;;;;;;31.17;14.97;;;;;;;;;;5013668;28;20037;-76
2023/02/11 11:18:08;;;;;;;37.38;15.27;;;;;;;;;;5029593;28;20112;-78
2023/02/11 11:20:35;;;;;;;31.63;14.10;;;;;;;;;;5030737;28;20500;-77
2023/02/11 11:23:30;;;;;;;33.93;15.27;;;;;;;;;;5030940;28;20481;-79
2023/02/11 11:26:09;;;;;;;31.50;13.87;;;;;;;;;;5024920;28;20044;-77
2023/02/11 11:28:39;;;;;;;28.93;14.13;;;;;;;;;;5030595;28;20030;-78
2023/02/11 11:31:16;;;;;;;29.70;13.83;;;;;;;;;;5034660;28;20022;-77
2023/02/11 11:33:43;;;;;;;36.60;14.83;;;;;;;;;;5034697;28;20024;-76
2023/02/11 11:36:12;;;;;;;31.97;14.93;;;;;;;;;;5035417;28;20045;-77
2023/02/11 11:38:45;;;;;;;27.00;13.93;;;;;;;;;;5029363;28;20030;-76
2023/02/11 11:41:20;;;;;;;31.87;14.23;;;;;;;;;;5014717;28;20029;-76
2023/02/11 11:44:20;;;;;;;30.50;13.67;;;;;;;;;;5013001;28;20028;-78
2023/02/11 11:46:52;;;;;;;26.63;13.00;;;;;;;;;;5014640;28;20037;-76
2023/02/11 11:49:31;;;;;;;33.58;13.82;;;;;;;;;;5014284;28;20147;-77
2023/02/11 11:52:15;;;;;;;31.50;14.40;;;;;;;;;;5012995;28;20038;-79
2023/02/11 11:54:45;;;;;;;33.47;14.20;;;;;;;;;;5012799;28;20087;-79
2023/02/11 11:57:16;;;;;;;30.13;14.57;;;;;;;;;;5014410;28;20101;-78
2023/02/11 11:59:42;;;;;;;32.65;13.70;;;;;;;;;;5013161;28;20025;-77
2023/02/11 12:02:45;;;;;;;26.83;13.17;;;;;;;;;;5013712;28;20041;-77
2023/02/11 12:05:21;;;;;;;29.90;14.47;;;;;;;;;;5013721;28;20026;-76
2023/02/11 12:07:59;;;;;;;28.63;13.77;;;;;;;;;;5013294;28;20021;-78
2023/02/11 12:10:48;;;;;;;33.67;14.87;;;;;;;;;;5012508;28;20106;-77
2023/02/11 12:13:34;;;;;;;33.13;13.87;;;;;;;;;;5013879;28;20209;-76
2023/02/11 12:16:16;;;;;;;30.70;13.10;;;;;;;;;;5012506;28;20462;-77
2023/02/11 12:18:42;;;;;;;26.25;13.02;;;;;;;;;;5012519;28;20117;-77
2023/02/11 12:21:28;;;;;;;32.13;12.97;;;;;;;;;;5012927;28;20486;-76
2023/02/11 12:24:26;;;;;;;29.47;14.27;;;;;;;;;;5012417;28;20033;-75
2023/02/11 12:27:02;;;;;;;31.80;14.00;;;;;;;;;;5012872;28;20053;-78
2023/02/11 12:30:17;;;;;;;28.63;12.90;;;;;;;;;;5013576;28;20033;-78
2023/02/11 12:33:13;;;;;;;29.23;13.63;;;;;;;;;;5012067;28;20064;-78
2023/02/11 12:35:53;;;;;;;27.53;13.70;;;;;;;;;;5011231;28;20611;-79
2023/02/11 12:38:38;;;;;;;31.83;14.47;;;;;;;;;;5017375;28;20037;-76
2023/02/11 12:43:14;;;;;;;36.30;15.23;;;;;;;;;;4994174;28;20141;-77
2023/02/11 12:44:09;;;;;;;26.83;13.23;;;;;;;;;;4994129;28;20069;-78
2023/02/11 12:46:45;;;;;;;29.97;14.70;;;;;;;;;;4992547;28;20105;-76
2023/02/11 12:49:48;;;;;;;30.17;14.70;;;;;;;;;;4994258;28;20061;-78
2023/02/11 12:52:33;;;;;;;32.10;14.27;;;;;;;;;;4975055;28;20481;-78
2023/02/11 12:55:10;;;;;;;32.67;14.67;;;;;;;;;;4993094;28;20030;-76
2023/02/11 12:57:40;;;;;;;30.07;13.53;;;;;;;;;;4993882;28;20034;-76
2023/02/11 13:00:14;;;;;;;35.23;15.30;;;;;;;;;;4993813;28;20026;-80
2023/02/11 13:03:10;;;;;;;29.27;13.87;;;;;;;;;;4992169;28;20049;-80
2023/02/11 13:05:38;;;;;;;27.93;12.97;;;;;;;;;;4991898;28;20037;-78
2023/02/11 13:08:14;;;;;;;32.17;14.50;;;;;;;;;;4992512;28;20427;-78
2023/02/11 13:10:45;;;;;;;27.73;13.80;;;;;;;;;;4991831;28;20149;-77
2023/02/11 13:13:36;;;;;;;31.42;14.18;;;;;;;;;;4993376;28;20364;-79
2023/02/11 13:16:16;;;;;;;34.50;14.40;;;;;;;;;;4991822;28;20042;-77
2023/02/11 13:18:50;;;;;;;30.27;14.43;;;;;;;;;;4991720;28;20441;-79
2023/02/11 13:21:39;;;;;;;28.67;13.43;;;;;;;;;;4991672;28;20117;-77
2023/02/11 13:24:17;;;;;;;27.77;13.03;;;;;;;;;;4993130;28;20034;-76
2023/02/11 13:27:32;;;;;;;36.27;15.63;;;;;;;;;;4992641;28;20657;-78
2023/02/11 13:30:02;;;;;;;31.93;13.93;;;;;;;;;;4978828;28;20096;-78
2023/02/11 13:32:53;;;;;;;29.40;13.33;;;;;;;;;;4991322;28;20506;-79
2023/02/11 13:35:34;;;;;;;25.97;13.50;;;;;;;;;;4992045;28;20034;-77
2023/02/11 13:38:02;;;;;;;26.85;13.77;;;;;;;;;;4991465;28;20033;-79
2023/02/11 13:40:36;;;;;;;34.17;13.33;;;;;;;;;;5025285;28;20073;-77
2023/02/11 13:43:20;;;;;;;28.00;13.10;;;;;;;;;;5029999;28;20029;-76
2023/02/11 13:45:48;;;;;;;28.77;13.87;;;;;;;;;;5031510;28;20036;-77
2023/02/11 13:48:21;;;;;;;23.47;11.50;;;;;;;;;;5031756;28;20025;-78
2023/02/11 13:50:51;;;;;;;29.27;14.73;;;;;;;;;;5030228;28;20139;-78
2023/02/11 13:53:17;;;;;;;28.47;14.13;;;;;;;;;;5030946;28;20111;-79
2023/02/11 13:55:45;;;;;;;27.03;13.23;;;;;;;;;;5014376;28;20041;-76
2023/02/11 13:58:14;;;;;;;30.00;13.93;;;;;;;;;;5032079;28;20131;-78
2023/02/11 14:00:39;;;;;;;30.90;13.20;;;;;;;;;;5030406;28;20440;-77
2023/02/11 14:09:13;;;;;;;30.80;13.90;;;;;;;;;;5031284;28;20083;-78
2023/02/11 14:11:54;;;;;;;28.27;12.67;;;;;;;;;;5030102;28;20030;-76
2023/02/11 14:14:33;;;;;;;28.87;13.47;;;;;;;;;;5031806;28;20030;-77
2023/02/11 14:16:59;;;;;;;28.43;13.90;;;;;;;;;;5031528;28;20021;-77
2023/02/11 14:19:45;;;;;;;28.60;13.53;;;;;;;;;;5031242;28;20033;-78
2023/02/11 14:22:22;;;;;;;30.47;13.80;;;;;;;;;;5030078;28;20029;-77
2023/02/11 14:24:51;;;;;;;28.77;13.20;;;;;;;;;;5031553;28;20308;-77
2023/02/11 14:27:24;;;;;;;32.47;14.40;;;;;;;;;;5030172;28;20029;-78
2023/02/11 14:29:56;;;;;;;27.90;13.43;;;;;;;;;;5030158;28;20026;-77
2023/02/11 14:32:44;;;;;;;23.23;13.20;;;;;;;;;;5029392;28;20029;-76
2023/02/11 14:35:38;;;;;;;25.63;11.63;;;;;;;;;;5030307;28;20033;-76
2023/02/11 14:38:20;;;;;;;23.97;11.53;;;;;;;;;;5029303;28;20048;-78
2023/02/11 14:40:55;;;;;;;;;;;;;;;;;;5010944;28;20136;-78
2023/02/11 14:43:28;;;;;;;25.13;12.03;;;;;;;;;;5011957;28;19914;-77
2023/02/11 14:45:56;;;;;;;26.37;12.67;;;;;;;;;;5010803;28;20120;-78
2023/02/11 14:48:29;;;;;;;26.07;13.93;;;;;;;;;;5010456;28;20393;-76
2023/02/11 14:51:22;;;;;;;31.60;14.40;;;;;;;;;;5012418;28;20108;-77
2023/02/11 14:53:51;;;;;;;30.20;12.97;;;;;;;;;;5010781;28;20038;-76
2023/02/11 14:56:26;;;;;;;28.23;13.33;;;;;;;;;;5012050;28;20038;-77